Time;durP1;ratioP1;P1;durP2;ratioP2;P2;SDS_P1;SDS_P2;PMS_P1;PMS_P2;Temp;Humidity;BMP_temperature;BMP_pressure;BME280_temperature;BME280_humidity;BME280_pressure;Samples;Min_cycle;Max_cycle;Signal;HPM_P1;HPM_P2
2023/04/30 02:43:37;;;;;;;15.70;9.60;;;;;;;8.68;98.61;99106.23;107005;1302;545827;-52
2023/04/30 02:46:03;;;;;;;17.00;9.20;;;;;;;8.64;98.12;99106.79;107358;1313;24059;-50
2023/04/30 02:48:28;;;;;;;13.70;9.90;;;;;;;8.71;98.03;99106.45;107327;1313;23296;-50
2023/04/30 02:50:53;;;;;;;14.90;9.70;;;;;;;8.67;97.90;99105.08;106538;1313;22230;-52
2023/04/30 02:53:18;;;;;;;14.80;9.80;;;;;;;8.69;97.84;99111.46;107378;1313;22254;-51
2023/04/30 02:55:44;;;;;;;12.10;9.10;;;;;;;8.71;98.39;99112.39;107371;1313;23255;-51
2023/04/30 02:58:09;;;;;;;12.20;9.40;;;;;;;8.73;97.98;99112.98;106905;1311;803982;-53
2023/04/30 03:00:34;;;;;;;13.10;9.40;;;;;;;8.66;97.45;99119.10;107526;1311;22558;-49
2023/04/30 03:03:00;;;;;;;18.20;9.10;;;;;;;8.67;96.95;99120.45;107646;1310;22615;-50
2023/04/30 03:05:25;;;;;;;14.60;9.60;;;;;;;8.70;96.64;99122.60;107793;1308;22250;-53
2023/04/30 03:07:50;;;;;;;17.20;10.40;;;;;;;8.74;97.24;99123.77;107813;1308;22423;-54
2023/04/30 03:10:17;;;;;;;16.00;9.80;;;;;;;8.80;96.55;99127.15;107804;1308;22244;-47
2023/04/30 03:12:43;;;;;;;19.00;10.30;;;;;;;8.78;96.19;99129.15;107817;1308;22236;-51
2023/04/30 03:15:08;;;;;;;13.00;9.30;;;;;;;8.71;95.81;99129.30;107838;1308;22412;-50
2023/04/30 03:17:34;;;;;;;18.30;10.30;;;;;;;8.66;95.67;99133.25;107088;1308;22567;-47
2023/04/30 03:19:59;;;;;;;12.40;9.70;;;;;;;8.71;95.92;99136.14;106661;1308;22814;-49
2023/04/30 03:22:25;;;;;;;14.30;9.20;;;;;;;8.68;95.33;99139.26;106695;1308;22568;-48
2023/04/30 03:24:50;;;;;;;18.50;9.40;;;;;;;8.65;95.04;99144.15;107202;1308;22472;-52
2023/04/30 03:27:16;;;;;;;15.30;9.60;;;;;;;8.64;94.33;99151.73;107819;1308;22441;-53
2023/04/30 03:29:41;;;;;;;15.50;8.70;;;;;;;8.60;94.23;99149.12;107855;1308;22257;-52
2023/04/30 03:32:06;;;;;;;13.80;8.90;;;;;;;8.48;93.89;99154.59;107823;1308;22305;-51
2023/04/30 03:34:32;;;;;;;14.50;9.00;;;;;;;8.44;93.44;99152.17;107842;1308;23163;-53
2023/04/30 03:36:57;;;;;;;15.40;9.50;;;;;;;8.45;93.38;99154.90;107855;1308;22239;-52
2023/04/30 03:39:22;;;;;;;14.80;9.70;;;;;;;8.46;92.89;99159.77;107865;1308;23606;-51
2023/04/30 03:41:47;;;;;;;15.30;9.50;;;;;;;8.46;92.92;99158.37;107836;1308;22254;-50
2023/04/30 03:44:14;;;;;;;14.20;8.80;;;;;;;8.40;92.89;99158.28;107857;1308;22282;-52
2023/04/30 03:46:42;;;;;;;19.00;9.70;;;;;;;8.32;92.31;99162.14;107870;1308;22453;-53
2023/04/30 03:49:07;;;;;;;14.60;9.20;;;;;;;8.27;92.26;99167.63;107873;1308;22956;-52
2023/04/30 03:51:32;;;;;;;14.70;9.30;;;;;;;8.30;92.12;99172.52;107847;1308;22216;-50
2023/04/30 03:53:58;;;;;;;12.20;8.70;;;;;;;8.29;91.92;99171.03;107844;1308;23065;-53
2023/04/30 03:56:25;;;;;;;16.20;9.30;;;;;;;8.20;92.00;99178.77;107836;1308;22249;-52
2023/04/30 03:58:50;;;;;;;11.70;8.80;;;;;;;8.12;91.59;99180.18;107852;1308;22895;-53
2023/04/30 04:01:15;;;;;;;13.50;8.90;;;;;;;8.10;91.57;99179.44;107821;1308;22461;-49
2023/04/30 04:03:41;;;;;;;12.60;8.90;;;;;;;8.15;91.40;99188.08;107847;1308;23021;-54
2023/04/30 04:06:06;;;;;;;13.20;8.40;;;;;;;8.13;91.53;99194.48;107879;1308;22478;-53
2023/04/30 04:08:31;;;;;;;12.40;8.70;;;;;;;8.11;90.96;99196.32;107834;1308;22966;-52
2023/04/30 04:10:57;;;;;;;10.90;8.20;;;;;;;8.09;90.72;99203.73;107840;1308;22433;-49
2023/04/30 04:13:22;;;;;;;14.40;8.50;;;;;;;7.97;89.50;99207.45;107826;1308;22947;-53
2023/04/30 04:15:47;;;;;;;13.90;8.00;;;;;;;7.93;89.61;99211.98;107825;1308;22186;-53
2023/04/30 04:18:12;;;;;;;13.20;7.90;;;;;;;7.91;89.78;99215.21;107824;1308;22230;-49
2023/04/30 04:20:38;;;;;;;12.50;7.60;;;;;;;7.85;89.77;99213.70;107847;1308;22456;-52
2023/04/30 04:23:03;;;;;;;10.60;7.40;;;;;;;7.82;89.44;99216.65;107844;1308;22223;-50
2023/04/30 04:25:28;;;;;;;13.60;8.10;;;;;;;7.84;89.46;99214.63;107802;1308;22230;-47
2023/04/30 04:27:54;;;;;;;13.50;8.20;;;;;;;7.85;89.56;99221.08;107825;1308;22283;-52
2023/04/30 04:30:19;;;;;;;17.60;8.20;;;;;;;7.82;89.53;99217.71;107843;1308;23159;-52
2023/04/30 04:32:50;;;;;;;11.20;8.20;;;;;;;7.77;89.13;99224.91;107830;1304;22501;-51
2023/04/30 04:35:17;;;;;;;13.40;8.10;;;;;;;7.73;88.79;99227.72;107846;1308;23149;-51
2023/04/30 04:37:43;;;;;;;11.00;8.80;;;;;;;7.72;88.73;99230.38;107841;1308;22220;-52
2023/04/30 04:40:10;;;;;;;11.80;8.20;;;;;;;7.68;88.53;99236.34;107845;1308;22247;-50
2023/04/30 04:42:37;;;;;;;15.30;7.80;;;;;;;7.61;88.52;99240.98;107837;1308;22380;-48
2023/04/30 04:45:03;;;;;;;12.70;8.40;;;;;;;7.64;88.79;99243.44;107838;1308;23331;-52
2023/04/30 04:47:29;;;;;;;10.60;7.80;;;;;;;7.53;88.74;99247.44;107824;1308;22233;-52
2023/04/30 04:49:54;;;;;;;12.30;8.30;;;;;;;7.42;88.71;99251.05;107844;1308;22263;-50
2023/04/30 04:52:19;;;;;;;14.40;8.60;;;;;;;7.44;88.99;99250.23;107810;1308;22227;-50
2023/04/30 04:54:45;;;;;;;10.10;8.00;;;;;;;7.44;88.50;99261.27;107845;1308;22436;-49
2023/04/30 04:57:10;;;;;;;12.80;8.00;;;;;;;7.40;88.83;99260.54;107830;1308;22244;-49
2023/04/30 04:59:35;;;;;;;13.20;8.10;;;;;;;7.38;88.68;99264.64;107784;1308;22270;-49
2023/04/30 05:02:00;;;;;;;16.10;8.80;;;;;;;7.42;88.18;99269.92;107874;1308;22253;-50
2023/04/30 05:04:26;;;;;;;14.60;8.20;;;;;;;7.45;87.73;99268.04;107821;1308;23133;-49
2023/04/30 05:06:53;;;;;;;12.00;7.80;;;;;;;7.47;88.03;99275.76;107839;1308;22385;-48
2023/04/30 05:09:18;;;;;;;11.00;7.40;;;;;;;7.44;87.91;99278.54;107863;1308;22398;-48
2023/04/30 05:11:45;;;;;;;15.20;7.90;;;;;;;7.47;87.51;99285.52;107810;1308;23056;-46
2023/04/30 05:14:10;;;;;;;13.90;7.70;;;;;;;7.47;87.29;99290.95;107817;1308;22315;-50
2023/04/30 05:16:35;;;;;;;15.40;8.10;;;;;;;7.51;87.24;99295.85;107826;1308;22501;-51
2023/04/30 05:19:01;;;;;;;11.80;7.00;;;;;;;7.52;86.86;99300.50;107841;1308;22409;-52
2023/04/30 05:21:28;;;;;;;17.10;7.60;;;;;;;7.58;86.66;99307.41;107823;1308;22286;-51
2023/04/30 05:23:54;;;;;;;9.90;7.20;;;;;;;7.58;85.98;99307.42;107836;1308;22216;-50
2023/04/30 05:26:20;;;;;;;12.30;7.50;;;;;;;7.59;85.58;99307.52;107838;1308;22295;-51
2023/04/30 05:28:45;;;;;;;14.00;7.70;;;;;;;7.68;85.99;99313.77;107830;1308;22253;-48
2023/04/30 05:31:11;;;;;;;14.90;7.70;;;;;;;7.73;85.70;99318.65;107804;1308;22318;-48
2023/04/30 05:33:36;;;;;;;14.00;7.80;;;;;;;7.78;85.92;99322.45;107795;1308;22227;-48
2023/04/30 05:36:01;;;;;;;10.90;7.30;;;;;;;7.81;85.16;99330.85;107814;1301;24253;-48
2023/04/30 05:38:27;;;;;;;13.70;7.00;;;;;;;7.74;84.44;99333.25;107819;1308;22394;-49
2023/04/30 05:40:52;;;;;;;10.20;6.20;;;;;;;7.72;84.09;99335.97;107810;1308;24486;-47
2023/04/30 05:43:17;;;;;;;12.90;7.20;;;;;;;7.71;83.84;99344.04;107813;1308;22391;-51
2023/04/30 05:45:42;;;;;;;8.60;6.50;;;;;;;7.74;83.91;99345.65;107816;1308;22407;-52
2023/04/30 05:48:08;;;;;;;12.30;7.20;;;;;;;7.75;83.83;99347.50;107849;1308;22210;-48
2023/04/30 05:50:33;;;;;;;9.60;6.80;;;;;;;7.82;83.34;99347.22;107805;1308;22243;-49
2023/04/30 05:52:59;;;;;;;12.30;6.20;;;;;;;7.77;83.15;99348.98;107814;1308;22229;-51
2023/04/30 05:55:25;;;;;;;13.30;6.60;;;;;;;7.79;82.86;99352.73;107822;1308;22403;-51
2023/04/30 05:57:50;;;;;;;9.80;6.30;;;;;;;7.89;83.17;99357.22;107846;1308;22325;-51
2023/04/30 06:00:15;;;;;;;15.50;7.30;;;;;;;7.87;83.04;99362.71;107819;1308;22251;-46
2023/04/30 06:02:41;;;;;;;10.80;6.30;;;;;;;7.90;82.44;99365.23;107845;1308;22874;-54
2023/04/30 06:05:07;;;;;;;9.50;6.20;;;;;;;7.97;82.29;99362.10;107818;1308;22226;-48
2023/04/30 06:07:33;;;;;;;14.70;6.90;;;;;;;7.98;81.25;99362.92;107861;1308;22201;-51
2023/04/30 06:09:58;;;;;;;12.10;6.20;;;;;;;8.03;81.30;99365.50;107823;1308;23109;-54
2023/04/30 06:12:23;;;;;;;9.10;6.30;;;;;;;8.09;80.64;99367.01;107818;1308;22225;-51
2023/04/30 06:14:49;;;;;;;14.80;6.60;;;;;;;8.12;79.90;99369.49;107841;1308;22268;-53
2023/04/30 06:17:15;;;;;;;11.60;5.80;;;;;;;8.18;79.17;99370.80;107823;1308;22232;-49
2023/04/30 06:19:40;;;;;;;10.60;5.40;;;;;;;8.21;79.03;99370.14;107849;1308;22415;-48
2023/04/30 06:22:06;;;;;;;9.50;5.50;;;;;;;8.20;78.48;99372.44;107828;1308;22479;-50
2023/04/30 06:24:31;;;;;;;13.50;5.80;;;;;;;8.21;77.99;99374.84;107807;1308;22236;-48
2023/04/30 06:26:56;;;;;;;10.20;5.40;;;;;;;8.26;77.94;99373.95;107842;1308;22219;-49
2023/04/30 06:29:23;;;;;;;11.50;4.60;;;;;;;8.31;77.87;99373.73;107833;1308;22460;-51
2023/04/30 06:31:49;;;;;;;9.90;4.60;;;;;;;8.28;76.55;99376.11;107856;1308;22235;-47
2023/04/30 06:34:15;;;;;;;11.00;4.60;;;;;;;8.36;76.73;99375.77;107839;1308;22385;-53
2023/04/30 06:36:40;;;;;;;8.70;4.60;;;;;;;8.42;76.36;99381.98;107828;1308;22253;-51
2023/04/30 06:39:05;;;;;;;7.60;4.80;;;;;;;8.49;76.06;99382.20;107755;1308;22240;-53
2023/04/30 06:41:31;;;;;;;9.50;4.70;;;;;;;8.56;75.97;99379.45;107737;1309;23214;-52
2023/04/30 06:43:56;;;;;;;8.30;4.90;;;;;;;8.57;75.27;99387.08;107770;1309;22458;-53
2023/04/30 06:46:21;;;;;;;7.90;5.10;;;;;;;8.57;74.57;99387.78;107726;1309;22296;-51
2023/04/30 06:48:46;;;;;;;13.90;6.20;;;;;;;8.62;75.30;99385.27;107751;1309;22407;-54
2023/04/30 06:51:12;;;;;;;11.60;4.60;;;;;;;8.63;75.16;99385.90;107742;1309;22227;-50
2023/04/30 06:53:37;;;;;;;10.80;5.10;;;;;;;8.68;74.64;99388.83;107728;1309;23363;-51
2023/04/30 06:56:03;;;;;;;10.50;5.50;;;;;;;8.73;74.32;99396.98;107741;1294;22229;-53
2023/04/30 06:58:28;;;;;;;14.20;5.10;;;;;;;8.76;73.50;99394.27;107740;1309;22246;-50
2023/04/30 07:00:53;;;;;;;7.80;4.40;;;;;;;8.78;72.91;99397.83;107737;1309;24299;-54
2023/04/30 07:03:19;;;;;;;7.20;3.90;;;;;;;8.85;73.16;99397.67;107747;1309;22303;-50
2023/04/30 07:05:44;;;;;;;8.30;3.90;;;;;;;8.86;71.79;99402.73;107761;1309;22223;-51
2023/04/30 07:08:09;;;;;;;12.40;4.10;;;;;;;8.86;70.03;99403.58;107729;1309;22238;-51
2023/04/30 07:10:35;;;;;;;10.10;3.80;;;;;;;8.90;69.63;99410.04;107743;1309;22132;-52
2023/04/30 07:13:00;;;;;;;6.80;3.80;;;;;;;8.92;68.75;99408.70;107747;1309;22269;-49
2023/04/30 07:15:25;;;;;;;8.80;3.60;;;;;;;8.93;68.84;99400.47;107770;1309;22993;-50
2023/04/30 07:17:51;;;;;;;5.20;3.40;;;;;;;8.88;68.60;99402.48;107758;1309;22302;-51
2023/04/30 07:20:16;;;;;;;8.80;3.30;;;;;;;8.88;67.57;99399.14;107756;1309;22259;-47
2023/04/30 07:22:45;;;;;;;9.20;3.30;;;;;;;8.92;67.38;99398.41;107751;1309;22423;-48
2023/04/30 07:25:15;;;;;;;10.50;3.80;;;;;;;8.97;66.45;99407.27;107733;1309;22211;-48
2023/04/30 07:27:40;;;;;;;4.40;2.60;;;;;;;8.96;66.41;99405.92;107747;1309;22220;-50
2023/04/30 07:30:08;;;;;;;11.50;3.10;;;;;;;8.95;65.52;99408.40;107771;1309;22227;-52
2023/04/30 07:32:34;;;;;;;6.60;3.30;;;;;;;8.96;65.57;99410.31;107765;1309;22379;-51
2023/04/30 07:35:00;;;;;;;6.50;3.10;;;;;;;8.98;65.38;99411.92;107775;1309;22245;-48
2023/04/30 07:37:25;;;;;;;14.70;3.30;;;;;;;9.04;65.01;99414.13;107746;1309;22457;-51
2023/04/30 07:39:51;;;;;;;7.90;2.70;;;;;;;9.05;64.33;99420.36;107722;1309;22315;-52
2023/04/30 07:42:16;;;;;;;4.70;2.40;;;;;;;9.12;63.81;99419.33;107745;1309;22252;-51
2023/04/30 07:44:41;;;;;;;5.90;3.00;;;;;;;9.19;62.79;99427.36;107777;1308;22260;-48
2023/04/30 07:47:07;;;;;;;7.00;2.80;;;;;;;9.16;62.44;99422.66;107758;1309;22931;-51
2023/04/30 07:49:32;;;;;;;4.60;3.00;;;;;;;9.21;63.39;99426.44;107781;1309;22279;-48
2023/04/30 07:51:59;;;;;;;6.90;3.20;;;;;;;9.16;62.82;99426.84;107750;1309;22627;-48
2023/04/30 07:54:25;;;;;;;10.10;3.00;;;;;;;9.25;63.16;99423.60;107761;1309;22165;-54
2023/04/30 07:56:50;;;;;;;7.60;3.20;;;;;;;9.28;63.23;99426.80;107761;1309;22799;-47
2023/04/30 07:59:16;;;;;;;5.90;3.30;;;;;;;9.30;62.95;99424.80;107753;1309;22226;-52
2023/04/30 08:01:41;;;;;;;6.10;3.10;;;;;;;9.42;63.29;99427.88;107798;1308;22217;-53
2023/04/30 08:04:07;;;;;;;5.30;2.70;;;;;;;9.46;62.19;99433.27;107745;1309;22253;-53
2023/04/30 08:06:32;;;;;;;5.30;3.00;;;;;;;9.48;61.13;99434.26;107773;1308;22857;-50
2023/04/30 08:08:57;;;;;;;10.40;3.10;;;;;;;9.56;61.12;99435.60;107749;1309;22222;-48
2023/04/30 08:11:23;;;;;;;5.70;2.90;;;;;;;9.55;59.21;99448.05;107760;1309;22390;-52
2023/04/30 08:13:48;;;;;;;7.60;3.20;;;;;;;9.57;59.27;99444.09;107793;1309;22684;-50
2023/04/30 08:16:13;;;;;;;10.70;3.10;;;;;;;9.65;59.66;99441.64;107784;1309;22208;-50
2023/04/30 08:18:42;;;;;;;8.00;3.00;;;;;;;9.76;60.36;99447.42;107773;1309;22391;-47
2023/04/30 08:21:08;;;;;;;6.40;3.10;;;;;;;9.81;59.06;99450.65;107794;1308;22967;-46
2023/04/30 08:23:33;;;;;;;5.60;3.00;;;;;;;9.86;58.13;99456.19;107760;1309;22221;-50
2023/04/30 08:25:58;;;;;;;8.30;3.00;;;;;;;9.88;56.55;99455.77;107758;1309;23074;-53
2023/04/30 08:28:24;;;;;;;5.00;2.50;;;;;;;9.90;56.45;99455.44;107756;1309;22222;-50
2023/04/30 08:30:49;;;;;;;7.30;2.90;;;;;;;9.95;56.92;99460.65;107744;1309;22952;-50
2023/04/30 08:33:14;;;;;;;7.50;2.90;;;;;;;10.04;56.93;99463.03;107761;1309;22439;-52
2023/04/30 08:35:40;;;;;;;4.60;2.30;;;;;;;10.11;55.95;99461.60;107776;1308;22570;-50
2023/04/30 08:38:05;;;;;;;8.00;2.70;;;;;;;10.20;52.35;99473.56;107775;1309;22235;-55
2023/04/30 08:40:34;;;;;;;6.40;2.80;;;;;;;10.28;51.71;99474.20;107750;1309;22166;-50
2023/04/30 08:43:05;;;;;;;7.70;2.90;;;;;;;10.24;51.82;99476.36;107783;1309;23099;-54
2023/04/30 08:45:31;;;;;;;8.60;3.10;;;;;;;10.26;51.71;99475.55;107751;1309;22253;-51
2023/04/30 08:47:59;;;;;;;7.90;2.70;;;;;;;10.40;51.20;99481.50;107775;1309;22233;-50
2023/04/30 08:50:25;;;;;;;8.00;3.30;;;;;;;10.51;51.19;99477.28;107796;1309;22421;-49
2023/04/30 08:52:50;;;;;;;6.50;2.50;;;;;;;10.68;51.31;99474.80;107761;1309;22243;-53
2023/04/30 08:55:15;;;;;;;4.70;2.50;;;;;;;10.85;50.36;99473.95;107786;1309;22284;-52
2023/04/30 08:57:41;;;;;;;5.50;2.40;;;;;;;11.02;48.88;99480.89;107754;1309;23045;-52
2023/04/30 09:00:07;;;;;;;6.40;2.70;;;;;;;11.11;48.48;99482.55;107740;1309;22227;-49
2023/04/30 09:02:33;;;;;;;4.90;2.90;;;;;;;11.20;47.03;99477.67;107763;1309;22381;-54
2023/04/30 09:04:58;;;;;;;7.30;2.30;;;;;;;11.33;48.21;99479.75;107784;1309;22856;-47
2023/04/30 09:07:27;;;;;;;5.10;2.20;;;;;;;11.34;44.93;99478.45;107768;1309;22233;-50
2023/04/30 09:09:53;;;;;;;6.20;2.20;;;;;;;11.44;44.06;99486.12;107766;1309;22243;-48
2023/04/30 09:12:19;;;;;;;2.20;1.80;;;;;;;11.62;41.74;99486.75;107749;1309;22795;-50
2023/04/30 09:15:04;;;;;;;2.10;1.70;;;;;;;11.83;40.52;99477.48;107765;1309;22417;-49
2023/04/30 09:17:31;;;;;;;3.50;1.70;;;;;;;12.24;41.40;99483.17;107792;1309;22231;-48
2023/04/30 09:20:12;;;;;;;6.80;1.70;;;;;;;12.58;39.00;99487.86;107769;1309;22968;-49
2023/04/30 09:22:40;;;;;;;19.10;2.10;;;;;;;12.84;37.85;99492.59;107766;1309;22822;-47
2023/04/30 09:25:06;;;;;;;4.70;1.70;;;;;;;13.41;39.34;99487.47;107785;1309;23000;-52
2023/04/30 09:27:32;;;;;;;2.80;1.70;;;;;;;14.10;38.41;99488.45;107793;1309;22848;-47
2023/04/30 09:29:57;;;;;;;3.50;1.40;;;;;;;14.59;35.62;99496.30;107781;1309;22224;-51
2023/04/30 09:32:23;;;;;;;3.00;1.50;;;;;;;15.07;35.54;99496.14;107760;1309;22530;-52
2023/04/30 09:34:49;;;;;;;4.20;1.70;;;;;;;15.63;33.95;99492.17;107756;1309;22232;-52
2023/04/30 09:37:15;;;;;;;8.30;1.50;;;;;;;15.77;32.04;99491.85;107780;1309;22769;-51
2023/04/30 09:39:51;;;;;;;4.40;1.40;;;;;;;16.46;34.27;99492.15;107751;1309;22235;-53
2023/04/30 09:42:17;;;;;;;4.50;1.50;;;;;;;16.77;30.79;99488.54;107752;1309;22127;-51
2023/04/30 09:44:43;;;;;;;4.10;1.70;;;;;;;17.04;29.70;99486.11;107752;1309;22236;-54
2023/04/30 09:47:19;;;;;;;2.10;1.20;;;;;;;17.74;31.73;99490.46;107744;1309;22472;-52
2023/04/30 09:49:50;;;;;;;7.60;1.70;;;;;;;18.13;30.12;99488.69;107734;1309;22323;-49
2023/04/30 09:52:17;;;;;;;5.60;1.70;;;;;;;17.82;28.19;99485.70;107765;1309;22417;-49
2023/04/30 09:54:44;;;;;;;6.60;2.00;;;;;;;18.48;30.53;99489.80;107736;1309;22756;-53
2023/04/30 09:57:12;;;;;;;1.80;1.60;;;;;;;18.94;29.94;99490.00;107752;1309;22239;-50
2023/04/30 09:59:42;;;;;;;7.10;1.80;;;;;;;19.45;29.49;99493.84;107722;1309;22236;-50
2023/04/30 10:02:08;;;;;;;3.30;1.90;;;;;;;19.08;28.51;99492.71;107525;1309;22841;-49
2023/04/30 10:04:38;;;;;;;5.30;2.00;;;;;;;18.89;27.42;99487.37;107757;1309;22847;-51
2023/04/30 10:07:14;;;;;;;2.70;1.70;;;;;;;19.68;29.22;99478.45;107724;1309;22403;-51
2023/04/30 10:09:43;;;;;;;3.80;1.80;;;;;;;19.83;27.69;99485.54;107728;1309;22314;-49
2023/04/30 10:12:21;;;;;;;4.30;2.00;;;;;;;20.32;28.14;99487.05;107728;1309;23157;-48
2023/04/30 10:14:56;;;;;;;3.60;1.80;;;;;;;20.97;28.11;99491.15;107723;1309;22232;-51
2023/04/30 10:17:26;;;;;;;3.20;2.10;;;;;;;20.91;26.41;99484.82;107740;1309;22247;-51
2023/04/30 10:19:56;;;;;;;3.40;2.00;;;;;;;20.92;26.75;99485.95;107722;1309;22244;-53
2023/04/30 10:22:22;;;;;;;5.20;2.30;;;;;;;21.18;25.27;99488.98;107732;1309;22229;-51
2023/04/30 10:24:47;;;;;;;3.20;2.20;;;;;;;21.46;24.64;99496.48;107714;1309;22924;-50
2023/04/30 10:27:13;;;;;;;5.00;2.10;;;;;;;21.45;25.30;99492.26;107719;1309;22215;-50
2023/04/30 10:29:38;;;;;;;2.40;2.20;;;;;;;21.24;24.66;99493.17;107717;1309;22267;-49
2023/04/30 10:32:05;;;;;;;3.10;2.00;;;;;;;21.34;25.60;99486.70;107732;1309;22221;-52
2023/04/30 10:34:45;;;;;;;3.70;2.60;;;;;;;21.33;26.05;99482.75;107741;1309;22483;-51
2023/04/30 10:37:49;;;;;;;3.30;2.00;;;;;;;22.00;26.89;99481.83;107739;1309;22433;-51
2023/04/30 10:40:14;;;;;;;4.30;2.20;;;;;;;21.91;23.71;99489.73;107600;1309;23381;-51
2023/04/30 10:42:52;;;;;;;2.70;1.50;;;;;;;22.12;23.06;99490.73;107711;1309;22230;-50
2023/04/30 10:45:19;;;;;;;2.40;1.90;;;;;;;22.39;22.49;99487.38;107742;1309;22241;-53
2023/04/30 10:47:45;;;;;;;8.90;2.30;;;;;;;23.04;22.98;99494.71;107727;1309;22239;-50
2023/04/30 10:50:11;;;;;;;3.20;2.00;;;;;;;22.98;22.17;99490.19;107762;1308;22233;-50
2023/04/30 10:52:37;;;;;;;6.30;2.20;;;;;;;22.96;22.55;99486.93;107729;1309;22238;-51
2023/04/30 10:55:16;;;;;;;3.00;1.80;;;;;;;23.30;22.43;99492.23;107708;1309;22233;-52
2023/04/30 10:57:42;;;;;;;2.80;1.90;;;;;;;22.93;22.25;99489.42;107744;1309;22377;-51
2023/04/30 11:00:11;;;;;;;4.20;2.20;;;;;;;23.14;22.52;99485.24;107724;1309;22356;-52
2023/04/30 11:02:47;;;;;;;4.80;1.90;;;;;;;23.28;21.57;99494.73;107720;1309;22235;-50
2023/04/30 11:05:13;;;;;;;3.40;2.00;;;;;;;23.56;21.40;99493.05;107753;1309;22972;-50
2023/04/30 11:07:47;;;;;;;3.40;1.90;;;;;;;23.65;21.98;99492.83;107743;1309;22240;-50
2023/04/30 11:10:13;;;;;;;5.30;2.00;;;;;;;24.26;22.42;99489.86;107735;1309;22174;-47
2023/04/30 11:12:40;;;;;;;3.60;2.00;;;;;;;24.30;21.28;99492.26;107775;1309;22475;-50
2023/04/30 11:15:12;;;;;;;4.60;2.30;;;;;;;23.74;21.18;99501.54;107784;1308;22240;-49
2023/04/30 11:17:37;;;;;;;2.90;1.80;;;;;;;24.02;20.98;99502.05;107758;1309;22169;-50
2023/04/30 11:20:03;;;;;;;6.40;1.70;;;;;;;24.11;20.61;99503.77;107775;1309;22406;-49
2023/04/30 11:22:34;;;;;;;2.80;1.50;;;;;;;23.90;20.49;99496.72;107767;1309;22735;-48
2023/04/30 11:25:04;;;;;;;3.70;1.70;;;;;;;24.49;20.48;99498.02;107744;1309;22473;-50
2023/04/30 11:27:35;;;;;;;4.70;1.70;;;;;;;24.69;20.08;99498.04;107780;1308;22217;-52
2023/04/30 11:30:02;;;;;;;2.60;1.60;;;;;;;24.95;19.73;99502.44;107793;1309;22186;-49
2023/04/30 11:32:35;;;;;;;1.70;1.40;;;;;;;24.88;19.92;99500.97;107759;1308;22125;-48
2023/04/30 11:35:03;;;;;;;3.10;1.50;;;;;;;24.96;20.13;99504.10;107782;1309;23081;-47
2023/04/30 11:37:35;;;;;;;3.10;1.50;;;;;;;24.87;20.02;99509.77;107776;1309;23143;-50
2023/04/30 11:40:12;;;;;;;4.50;1.80;;;;;;;24.98;19.75;99510.06;107561;1309;22107;-50
2023/04/30 11:42:39;;;;;;;4.80;1.90;;;;;;;25.41;20.13;99514.73;107765;1308;22382;-46
2023/04/30 11:45:12;;;;;;;2.40;1.60;;;;;;;25.83;20.39;99514.55;107762;1309;22243;-50
2023/04/30 11:47:42;;;;;;;2.30;1.60;;;;;;;25.53;19.79;99516.04;107785;1309;22222;-49
2023/04/30 11:50:09;;;;;;;4.20;1.70;;;;;;;25.45;19.90;99511.35;107753;1308;22498;-52
2023/04/30 11:52:35;;;;;;;6.70;1.50;;;;;;;25.41;19.59;99507.37;107780;1309;22249;-49
2023/04/30 11:55:04;;;;;;;6.30;2.10;;;;;;;25.78;19.98;99502.64;107771;1308;23475;-48
2023/04/30 11:57:34;;;;;;;5.00;1.70;;;;;;;25.63;18.70;99512.58;107760;1309;22256;-46
2023/04/30 12:00:08;;;;;;;5.00;1.80;;;;;;;25.88;18.97;99507.73;107764;1309;22312;-52
2023/04/30 12:02:34;;;;;;;4.70;1.50;;;;;;;26.02;18.71;99507.58;107766;1308;22405;-48
2023/04/30 12:04:59;;;;;;;3.10;1.70;;;;;;;26.02;18.45;99503.98;107737;1309;22213;-52
2023/04/30 12:07:24;;;;;;;2.50;1.60;;;;;;;25.27;17.86;99516.44;107752;1309;22252;-52
2023/04/30 12:09:54;;;;;;;2.80;1.70;;;;;;;25.60;17.83;99513.14;107761;1309;22237;-48
2023/04/30 12:12:27;;;;;;;1.70;1.60;;;;;;;25.36;17.52;99513.58;107750;1309;22230;-52
2023/04/30 12:14:52;;;;;;;3.30;1.60;;;;;;;25.34;17.31;99510.89;107758;1309;22230;-51
2023/04/30 12:17:34;;;;;;;2.40;1.60;;;;;;;25.62;17.28;99512.35;107736;1309;22440;-53
2023/04/30 12:19:59;;;;;;;2.50;1.40;;;;;;;25.51;17.69;99507.34;107757;1309;22232;-50
2023/04/30 12:22:25;;;;;;;6.00;1.60;;;;;;;25.63;17.62;99507.52;107755;1309;23050;-55
2023/04/30 12:24:50;;;;;;;2.30;1.60;;;;;;;25.76;17.75;99505.17;107764;1309;22236;-51
2023/04/30 12:27:16;;;;;;;3.30;2.00;;;;;;;25.69;16.59;99501.09;107730;1309;22365;-47
2023/04/30 12:29:46;;;;;;;3.50;1.50;;;;;;;25.29;17.02;99504.05;107776;1309;22239;-48
2023/04/30 12:32:14;;;;;;;4.80;1.90;;;;;;;25.70;18.16;99504.40;107761;1309;22989;-51
2023/04/30 12:34:41;;;;;;;4.60;1.80;;;;;;;25.43;18.04;99497.44;107783;1309;22387;-47
2023/04/30 12:37:06;;;;;;;9.20;1.70;;;;;;;25.45;18.10;99493.06;107754;1309;22277;-48
2023/04/30 12:39:35;;;;;;;3.80;1.60;;;;;;;25.13;17.73;99495.94;107717;1309;22228;-50
2023/04/30 12:42:03;;;;;;;3.60;1.60;;;;;;;25.13;17.73;99502.65;107758;1309;22273;-51
2023/04/30 12:44:28;;;;;;;2.50;1.60;;;;;;;24.64;18.09;99497.85;107762;1309;22951;-50
2023/04/30 12:46:56;;;;;;;3.30;1.60;;;;;;;24.16;17.98;99496.70;107763;1309;22327;-46
2023/04/30 12:49:33;;;;;;;3.70;1.60;;;;;;;23.77;18.10;99501.72;107747;1309;23212;-48
2023/04/30 12:52:02;;;;;;;4.60;2.10;;;;;;;23.26;18.45;99498.86;107762;1309;22282;-54
2023/04/30 12:54:30;;;;;;;3.30;1.80;;;;;;;21.91;18.76;99496.90;107756;1309;22398;-47
2023/04/30 12:56:58;;;;;;;4.10;1.60;;;;;;;21.45;18.57;99505.27;107784;1308;22229;-54
2023/04/30 12:59:23;;;;;;;4.20;1.50;;;;;;;21.08;19.09;99497.56;107763;1309;22459;-47
2023/04/30 13:01:49;;;;;;;3.80;1.70;;;;;;;20.68;19.24;99496.37;107727;1309;22403;-48
2023/04/30 13:04:14;;;;;;;8.20;1.90;;;;;;;19.34;21.20;99505.13;107777;1309;22282;-53
2023/04/30 13:06:39;;;;;;;3.00;1.60;;;;;;;19.25;21.64;99504.16;107764;1309;22226;-48
2023/04/30 13:09:04;;;;;;;3.00;1.80;;;;;;;19.18;21.83;99502.33;107792;1298;22263;-48
2023/04/30 13:11:30;;;;;;;4.60;1.80;;;;;;;18.93;22.40;99499.14;107745;1309;23150;-52
2023/04/30 13:13:55;;;;;;;3.50;1.70;;;;;;;18.58;23.27;99498.50;107747;1309;22507;-50
2023/04/30 13:16:21;;;;;;;5.70;1.60;;;;;;;18.30;23.24;99495.38;107731;1309;22235;-53
2023/04/30 13:18:47;;;;;;;1.80;1.20;;;;;;;18.16;23.88;99488.78;107748;1309;22220;-52
2023/04/30 13:21:12;;;;;;;2.60;1.50;;;;;;;17.91;23.71;99493.18;107758;1309;22243;-51
2023/04/30 13:23:37;;;;;;;4.00;1.50;;;;;;;17.22;25.63;99488.79;107743;1309;22394;-50
2023/04/30 13:26:03;;;;;;;5.50;2.20;;;;;;;16.98;25.73;99489.96;107750;1309;22729;-49
2023/04/30 13:28:28;;;;;;;3.30;1.60;;;;;;;17.14;25.35;99489.39;107736;1309;22305;-46
2023/04/30 13:30:53;;;;;;;5.30;1.90;;;;;;;16.61;25.68;99496.52;107728;1309;22283;-51
2023/04/30 13:33:19;;;;;;;3.80;1.90;;;;;;;16.64;25.85;99499.86;107752;1309;22251;-47
2023/04/30 13:35:45;;;;;;;4.70;1.80;;;;;;;16.66;25.61;99494.55;107764;1309;22287;-51
2023/04/30 13:38:10;;;;;;;2.00;1.40;;;;;;;16.53;25.88;99490.91;107732;1309;23252;-47
2023/04/30 13:40:36;;;;;;;6.10;1.90;;;;;;;16.26;26.58;99493.52;107726;1309;22403;-51
2023/04/30 13:43:01;;;;;;;3.70;1.50;;;;;;;16.30;26.52;99485.30;107748;1309;22291;-50
2023/04/30 13:45:26;;;;;;;2.90;1.50;;;;;;;16.27;26.88;99481.26;107771;1308;22366;-48
2023/04/30 13:47:52;;;;;;;7.80;1.60;;;;;;;16.38;27.06;99482.92;107758;1309;22257;-50
2023/04/30 13:50:17;;;;;;;7.90;1.50;;;;;;;16.46;26.60;99487.91;107756;1309;22393;-49
2023/04/30 13:52:42;;;;;;;4.10;2.00;;;;;;;16.41;26.74;99490.12;107727;1309;22244;-45
2023/04/30 13:55:08;;;;;;;6.40;1.90;;;;;;;16.32;27.33;99485.98;107754;1309;22405;-52
2023/04/30 13:57:33;;;;;;;4.50;1.60;;;;;;;16.29;26.73;99486.96;107773;1309;22394;-50
2023/04/30 13:59:59;;;;;;;4.40;1.70;;;;;;;16.13;27.37;99470.84;107758;1309;22244;-51
2023/04/30 14:02:26;;;;;;;4.00;1.70;;;;;;;16.26;27.54;99474.94;107754;1309;22408;-52
2023/04/30 14:04:52;;;;;;;4.10;1.60;;;;;;;16.24;27.32;99480.77;107758;1309;22302;-54
2023/04/30 14:07:17;;;;;;;3.80;1.50;;;;;;;15.98;27.54;99476.73;107739;1309;22279;-47